sensor_id;sensor_type;location;lat;lon;timestamp;temperature;humidity
55329;DHT22;41205;44.264;19.884;2022-11-12T00:00:39;256.80;2252.80
55329;DHT22;41205;44.264;19.884;2022-11-12T00:03:05;256.50;2252.80
55329;DHT22;41205;44.264;19.884;2022-11-12T00:05:31;256.50;2252.80
55329;DHT22;41205;44.264;19.884;2022-11-12T00:07:57;256.40;2252.80
55329;DHT22;41205;44.264;19.884;2022-11-12T00:10:23;256.50;2252.80
55329;DHT22;41205;44.264;19.884;2022-11-12T00:12:49;256.50;2252.80
55329;DHT22;41205;44.264;19.884;2022-11-12T00:15:15;256.60;2252.80
55329;DHT22;41205;44.264;19.884;2022-11-12T00:17:41;256.80;2252.80
55329;DHT22;41205;44.264;19.884;2022-11-12T00:20:07;256.80;2252.80
55329;DHT22;41205;44.264;19.884;2022-11-12T00:22:33;256.80;2252.80
55329;DHT22;41205;44.264;19.884;2022-11-12T00:24:59;256.90;2252.80
55329;DHT22;41205;44.264;19.884;2022-11-12T00:27:24;256.90;2252.80
55329;DHT22;41205;44.264;19.884;2022-11-12T00:29:50;256.90;2252.80
55329;DHT22;41205;44.264;19.884;2022-11-12T00:32:16;256.80;2252.80
55329;DHT22;41205;44.264;19.884;2022-11-12T00:34:42;256.90;2252.80
55329;DHT22;41205;44.264;19.884;2022-11-12T00:37:07;256.90;2252.80
55329;DHT22;41205;44.264;19.884;2022-11-12T00:39:33;256.80;2252.80
55329;DHT22;41205;44.264;19.884;2022-11-12T00:41:59;256.80;2252.80
55329;DHT22;41205;44.264;19.884;2022-11-12T00:44:25;256.60;2252.80
55329;DHT22;41205;44.264;19.884;2022-11-12T00:46:52;256.50;2252.80
55329;DHT22;41205;44.264;19.884;2022-11-12T00:49:17;256.70;2252.80
55329;DHT22;41205;44.264;19.884;2022-11-12T00:51:43;256.20;2252.80
55329;DHT22;41205;44.264;19.884;2022-11-12T00:54:09;256.00;2252.80
55329;DHT22;41205;44.264;19.884;2022-11-12T00:56:34;231.30;2252.80
55329;DHT22;41205;44.264;19.884;2022-11-12T00:59:00;231.30;2252.80
55329;DHT22;41205;44.264;19.884;2022-11-12T01:01:26;231.30;2252.80
55329;DHT22;41205;44.264;19.884;2022-11-12T01:03:52;231.30;2252.80
55329;DHT22;41205;44.264;19.884;2022-11-12T01:06:21;231.30;2252.80
55329;DHT22;41205;44.264;19.884;2022-11-12T01:08:48;231.20;2252.80
55329;DHT22;41205;44.264;19.884;2022-11-12T01:11:17;231.30;2252.80
55329;DHT22;41205;44.264;19.884;2022-11-12T01:13:45;231.30;2252.80
55329;DHT22;41205;44.264;19.884;2022-11-12T01:16:19;231.20;2252.80
55329;DHT22;41205;44.264;19.884;2022-11-12T01:18:46;231.30;2252.80
55329;DHT22;41205;44.264;19.884;2022-11-12T01:21:13;256.10;2252.80
55329;DHT22;41205;44.264;19.884;2022-11-12T01:23:41;256.00;2252.80
55329;DHT22;41205;44.264;19.884;2022-11-12T01:26:13;231.30;2252.80
55329;DHT22;41205;44.264;19.884;2022-11-12T01:28:40;231.30;2252.80
55329;DHT22;41205;44.264;19.884;2022-11-12T01:33:47;231.30;2252.80
55329;DHT22;41205;44.264;19.884;2022-11-12T01:36:14;231.30;2252.80
55329;DHT22;41205;44.264;19.884;2022-11-12T01:38:41;256.10;2252.80
55329;DHT22;41205;44.264;19.884;2022-11-12T01:41:09;256.10;2252.80
55329;DHT22;41205;44.264;19.884;2022-11-12T01:43:36;256.20;2252.80
55329;DHT22;41205;44.264;19.884;2022-11-12T01:46:06;256.20;2252.80
55329;DHT22;41205;44.264;19.884;2022-11-12T01:48:38;256.30;2252.80
55329;DHT22;41205;44.264;19.884;2022-11-12T01:51:06;256.40;2252.80
55329;DHT22;41205;44.264;19.884;2022-11-12T01:53:38;256.50;2252.80
55329;DHT22;41205;44.264;19.884;2022-11-12T01:56:06;256.40;2252.80
55329;DHT22;41205;44.264;19.884;2022-11-12T01:58:33;256.30;2252.80
55329;DHT22;41205;44.264;19.884;2022-11-12T02:01:01;256.10;2252.80
55329;DHT22;41205;44.264;19.884;2022-11-12T02:03:27;256.00;2252.80
55329;DHT22;41205;44.264;19.884;2022-11-12T02:06:13;256.10;2252.80
55329;DHT22;41205;44.264;19.884;2022-11-12T02:08:40;256.00;2252.80
55329;DHT22;41205;44.264;19.884;2022-11-12T02:11:24;231.30;2252.80
55329;DHT22;41205;44.264;19.884;2022-11-12T02:13:52;231.30;2252.80
55329;DHT22;41205;44.264;19.884;2022-11-12T02:18:58;231.30;2252.80
55329;DHT22;41205;44.264;19.884;2022-11-12T02:21:24;231.30;2252.80
55329;DHT22;41205;44.264;19.884;2022-11-12T02:24:02;256.00;2252.80
55329;DHT22;41205;44.264;19.884;2022-11-12T02:28:58;231.20;2252.80
55329;DHT22;41205;44.264;19.884;2022-11-12T02:31:24;231.10;2252.80
55329;DHT22;41205;44.264;19.884;2022-11-12T02:33:50;231.10;2252.80
55329;DHT22;41205;44.264;19.884;2022-11-12T02:36:15;231.10;2252.80
55329;DHT22;41205;44.264;19.884;2022-11-12T02:38:41;231.00;2252.80
55329;DHT22;41205;44.264;19.884;2022-11-12T02:41:07;231.00;2252.80
55329;DHT22;41205;44.264;19.884;2022-11-12T02:43:33;231.00;2252.80
55329;DHT22;41205;44.264;19.884;2022-11-12T02:45:58;231.20;2252.80
55329;DHT22;41205;44.264;19.884;2022-11-12T02:48:24;231.30;2252.80
55329;DHT22;41205;44.264;19.884;2022-11-12T02:50:50;256.00;2252.80
55329;DHT22;41205;44.264;19.884;2022-11-12T02:53:15;231.30;2252.80
55329;DHT22;41205;44.264;19.884;2022-11-12T02:55:42;231.30;2252.80
55329;DHT22;41205;44.264;19.884;2022-11-12T02:58:08;256.00;2252.80
55329;DHT22;41205;44.264;19.884;2022-11-12T03:00:33;256.20;2252.80
55329;DHT22;41205;44.264;19.884;2022-11-12T03:02:59;256.30;2252.80
55329;DHT22;41205;44.264;19.884;2022-11-12T03:05:30;256.40;2252.80
55329;DHT22;41205;44.264;19.884;2022-11-12T03:08:00;256.50;2252.80
55329;DHT22;41205;44.264;19.884;2022-11-12T03:10:27;256.50;2252.80
55329;DHT22;41205;44.264;19.884;2022-11-12T03:12:55;256.40;2252.80
55329;DHT22;41205;44.264;19.884;2022-11-12T03:15:22;256.40;2252.80
55329;DHT22;41205;44.264;19.884;2022-11-12T03:17:47;256.50;2252.80
55329;DHT22;41205;44.264;19.884;2022-11-12T03:20:13;256.40;2252.80
55329;DHT22;41205;44.264;19.884;2022-11-12T03:22:39;256.40;2252.80
55329;DHT22;41205;44.264;19.884;2022-11-12T03:25:06;256.40;2252.80
55329;DHT22;41205;44.264;19.884;2022-11-12T03:27:32;256.50;2252.80
55329;DHT22;41205;44.264;19.884;2022-11-12T03:29:58;256.30;2252.80
55329;DHT22;41205;44.264;19.884;2022-11-12T03:32:24;256.40;2252.80
55329;DHT22;41205;44.264;19.884;2022-11-12T03:34:49;256.40;2252.80
55329;DHT22;41205;44.264;19.884;2022-11-12T03:37:15;256.40;2252.80
55329;DHT22;41205;44.264;19.884;2022-11-12T03:39:42;256.30;2252.80
55329;DHT22;41205;44.264;19.884;2022-11-12T03:42:07;256.20;2252.80
55329;DHT22;41205;44.264;19.884;2022-11-12T03:44:34;256.20;2252.80
55329;DHT22;41205;44.264;19.884;2022-11-12T03:47:00;256.20;2252.80
55329;DHT22;41205;44.264;19.884;2022-11-12T03:49:25;256.30;2252.80
55329;DHT22;41205;44.264;19.884;2022-11-12T03:51:51;256.40;2252.80
55329;DHT22;41205;44.264;19.884;2022-11-12T03:54:17;256.50;2252.80
55329;DHT22;41205;44.264;19.884;2022-11-12T03:56:44;256.40;2252.80
55329;DHT22;41205;44.264;19.884;2022-11-12T03:59:10;256.50;2252.80
55329;DHT22;41205;44.264;19.884;2022-11-12T04:01:36;256.50;2252.80
55329;DHT22;41205;44.264;19.884;2022-11-12T04:04:01;256.50;2252.80
55329;DHT22;41205;44.264;19.884;2022-11-12T04:06:27;256.50;2252.80
55329;DHT22;41205;44.264;19.884;2022-11-12T04:09:11;256.50;2252.80
55329;DHT22;41205;44.264;19.884;2022-11-12T04:11:37;256.40;2252.80
55329;DHT22;41205;44.264;19.884;2022-11-12T04:14:02;256.40;2252.80
55329;DHT22;41205;44.264;19.884;2022-11-12T04:16:28;256.40;2252.80
55329;DHT22;41205;44.264;19.884;2022-11-12T04:19:13;256.40;2252.80
55329;DHT22;41205;44.264;19.884;2022-11-12T04:21:59;256.50;2252.80
55329;DHT22;41205;44.264;19.884;2022-11-12T04:29:43;256.60;2252.80
55329;DHT22;41205;44.264;19.884;2022-11-12T04:32:28;256.70;2252.80
55329;DHT22;41205;44.264;19.884;2022-11-12T04:34:55;256.70;2252.80
55329;DHT22;41205;44.264;19.884;2022-11-12T04:37:22;256.70;2252.80
55329;DHT22;41205;44.264;19.884;2022-11-12T04:39:48;256.60;2252.80
55329;DHT22;41205;44.264;19.884;2022-11-12T04:42:14;256.60;2252.80
55329;DHT22;41205;44.264;19.884;2022-11-12T04:44:58;256.50;2252.80
55329;DHT22;41205;44.264;19.884;2022-11-12T04:47:25;256.60;2252.80
55329;DHT22;41205;44.264;19.884;2022-11-12T04:49:51;256.60;2252.80
55329;DHT22;41205;44.264;19.884;2022-11-12T04:52:17;256.80;2252.80
55329;DHT22;41205;44.264;19.884;2022-11-12T04:54:42;256.90;2252.80
55329;DHT22;41205;44.264;19.884;2022-11-12T04:57:08;256.90;2252.80
55329;DHT22;41205;44.264;19.884;2022-11-12T04:59:34;281.60;2278.40
55329;DHT22;41205;44.264;19.884;2022-11-12T05:02:00;256.90;2252.80
55329;DHT22;41205;44.264;19.884;2022-11-12T05:04:25;281.70;2278.40
55329;DHT22;41205;44.264;19.884;2022-11-12T05:06:54;281.60;2278.40
55329;DHT22;41205;44.264;19.884;2022-11-12T05:09:22;281.60;2278.40
55329;DHT22;41205;44.264;19.884;2022-11-12T05:11:49;281.70;2278.40
55329;DHT22;41205;44.264;19.884;2022-11-12T05:14:15;281.70;2278.40
55329;DHT22;41205;44.264;19.884;2022-11-12T05:16:41;281.70;2278.40
55329;DHT22;41205;44.264;19.884;2022-11-12T05:19:06;281.60;2278.40
55329;DHT22;41205;44.264;19.884;2022-11-12T05:21:32;281.60;2278.40
55329;DHT22;41205;44.264;19.884;2022-11-12T05:24:16;281.70;2278.40
55329;DHT22;41205;44.264;19.884;2022-11-12T05:26:42;281.80;2278.40
55329;DHT22;41205;44.264;19.884;2022-11-12T05:29:07;281.80;2278.40
55329;DHT22;41205;44.264;19.884;2022-11-12T05:31:33;281.70;2278.40
55329;DHT22;41205;44.264;19.884;2022-11-12T05:33:59;281.60;2278.40
55329;DHT22;41205;44.264;19.884;2022-11-12T05:36:25;256.80;2252.80
55329;DHT22;41205;44.264;19.884;2022-11-12T05:38:51;256.80;2252.80
55329;DHT22;41205;44.264;19.884;2022-11-12T05:41:16;256.70;2252.80
55329;DHT22;41205;44.264;19.884;2022-11-12T05:43:42;256.60;2252.80
55329;DHT22;41205;44.264;19.884;2022-11-12T05:46:08;256.60;2252.80
55329;DHT22;41205;44.264;19.884;2022-11-12T05:48:33;256.60;2252.80
55329;DHT22;41205;44.264;19.884;2022-11-12T05:50:59;256.60;2252.80
55329;DHT22;41205;44.264;19.884;2022-11-12T05:53:25;256.70;2252.80
55329;DHT22;41205;44.264;19.884;2022-11-12T05:55:51;256.60;2252.80
55329;DHT22;41205;44.264;19.884;2022-11-12T05:58:16;256.80;2252.80
55329;DHT22;41205;44.264;19.884;2022-11-12T06:00:42;256.70;2252.80
55329;DHT22;41205;44.264;19.884;2022-11-12T06:03:09;256.80;2252.80
55329;DHT22;41205;44.264;19.884;2022-11-12T06:05:35;256.80;2252.80
55329;DHT22;41205;44.264;19.884;2022-11-12T06:08:03;256.80;2252.80
55329;DHT22;41205;44.264;19.884;2022-11-12T06:10:31;256.90;2252.80
55329;DHT22;41205;44.264;19.884;2022-11-12T06:12:57;256.70;2252.80
55329;DHT22;41205;44.264;19.884;2022-11-12T06:15:22;256.60;2252.80
55329;DHT22;41205;44.264;19.884;2022-11-12T06:17:52;256.60;2252.80
55329;DHT22;41205;44.264;19.884;2022-11-12T06:20:18;256.60;2252.80
55329;DHT22;41205;44.264;19.884;2022-11-12T06:22:44;256.80;2252.80
55329;DHT22;41205;44.264;19.884;2022-11-12T06:25:10;256.90;2252.80
55329;DHT22;41205;44.264;19.884;2022-11-12T06:27:36;281.70;2278.40
55329;DHT22;41205;44.264;19.884;2022-11-12T06:30:03;281.70;2278.40
55329;DHT22;41205;44.264;19.884;2022-11-12T06:32:29;281.90;2278.40
55329;DHT22;41205;44.264;19.884;2022-11-12T06:34:55;282.00;2278.40
55329;DHT22;41205;44.264;19.884;2022-11-12T06:37:20;281.80;2278.40
55329;DHT22;41205;44.264;19.884;2022-11-12T06:39:47;282.00;2278.40
55329;DHT22;41205;44.264;19.884;2022-11-12T06:42:12;282.00;2278.40
55329;DHT22;41205;44.264;19.884;2022-11-12T06:44:38;281.70;2278.40
55329;DHT22;41205;44.264;19.884;2022-11-12T06:47:04;281.70;2278.40
55329;DHT22;41205;44.264;19.884;2022-11-12T06:49:30;281.80;2278.40
55329;DHT22;41205;44.264;19.884;2022-11-12T06:51:55;281.70;2278.40
55329;DHT22;41205;44.264;19.884;2022-11-12T06:54:21;281.90;2278.40
55329;DHT22;41205;44.264;19.884;2022-11-12T06:56:47;282.10;2278.40
55329;DHT22;41205;44.264;19.884;2022-11-12T06:59:12;282.30;2278.40
55329;DHT22;41205;44.264;19.884;2022-11-12T07:01:38;282.20;2278.40
55329;DHT22;41205;44.264;19.884;2022-11-12T07:04:04;282.00;2278.40
55329;DHT22;41205;44.264;19.884;2022-11-12T07:06:29;282.10;2278.40
55329;DHT22;41205;44.264;19.884;2022-11-12T07:08:55;281.90;2278.40
55329;DHT22;41205;44.264;19.884;2022-11-12T07:11:21;281.80;2278.40
55329;DHT22;41205;44.264;19.884;2022-11-12T07:13:47;281.80;2278.40
55329;DHT22;41205;44.264;19.884;2022-11-12T07:16:14;281.70;2278.40
55329;DHT22;41205;44.264;19.884;2022-11-12T07:18:47;281.70;2278.40
55329;DHT22;41205;44.264;19.884;2022-11-12T07:21:16;281.80;2278.40
55329;DHT22;41205;44.264;19.884;2022-11-12T07:23:42;281.90;2278.40
55329;DHT22;41205;44.264;19.884;2022-11-12T07:26:13;282.00;2278.40
55329;DHT22;41205;44.264;19.884;2022-11-12T07:28:39;282.20;2278.40
55329;DHT22;41205;44.264;19.884;2022-11-12T07:31:08;282.50;2278.40
55329;DHT22;41205;44.264;19.884;2022-11-12T07:33:34;307.20;2304.00
55329;DHT22;41205;44.264;19.884;2022-11-12T07:36:04;307.30;2304.00
55329;DHT22;41205;44.264;19.884;2022-11-12T07:38:33;307.60;2304.00
55329;DHT22;41205;44.264;19.884;2022-11-12T07:43:33;307.90;2304.00
55329;DHT22;41205;44.264;19.884;2022-11-12T07:46:07;307.90;2304.00
55329;DHT22;41205;44.264;19.884;2022-11-12T07:48:33;308.10;2304.00
55329;DHT22;41205;44.264;19.884;2022-11-12T07:51:07;332.90;2329.60
55329;DHT22;41205;44.264;19.884;2022-11-12T07:53:33;333.30;2329.60
55329;DHT22;41205;44.264;19.884;2022-11-12T07:56:00;333.50;2329.60
55329;DHT22;41205;44.264;19.884;2022-11-12T07:58:28;333.70;2329.60
55329;DHT22;41205;44.264;19.884;2022-11-12T08:00:54;333.70;2329.60
55329;DHT22;41205;44.264;19.884;2022-11-12T08:03:20;358.50;2329.60
55329;DHT22;41205;44.264;19.884;2022-11-12T08:05:46;358.80;2329.60
55329;DHT22;41205;44.264;19.884;2022-11-12T08:08:12;359.10;2329.60
55329;DHT22;41205;44.264;19.884;2022-11-12T08:10:38;384.00;2329.60
55329;DHT22;41205;44.264;19.884;2022-11-12T08:13:04;384.60;2329.60
55329;DHT22;41205;44.264;19.884;2022-11-12T08:15:31;410.10;2355.20
55329;DHT22;41205;44.264;19.884;2022-11-12T08:17:56;461.10;2380.80
55329;DHT22;41205;44.264;19.884;2022-11-12T08:20:22;486.90;2355.20
55329;DHT22;41205;44.264;19.884;2022-11-12T08:22:48;512.00;2176.00
55329;DHT22;41205;44.264;19.884;2022-11-12T08:25:15;512.30;2124.80
55329;DHT22;41205;44.264;19.884;2022-11-12T08:27:41;486.50;2227.20
55329;DHT22;41205;44.264;19.884;2022-11-12T08:30:07;461.60;2304.00
55329;DHT22;41205;44.264;19.884;2022-11-12T08:32:33;461.20;2380.80
55329;DHT22;41205;44.264;19.884;2022-11-12T08:34:59;461.50;2304.00
55329;DHT22;41205;44.264;19.884;2022-11-12T08:37:25;436.10;2355.20
55329;DHT22;41205;44.264;19.884;2022-11-12T08:39:50;436.10;2355.20
55329;DHT22;41205;44.264;19.884;2022-11-12T08:42:16;435.90;2355.20
55329;DHT22;41205;44.264;19.884;2022-11-12T08:44:44;435.80;2355.20
55329;DHT22;41205;44.264;19.884;2022-11-12T08:47:09;435.40;2355.20
55329;DHT22;41205;44.264;19.884;2022-11-12T08:49:36;435.60;2355.20
55329;DHT22;41205;44.264;19.884;2022-11-12T08:52:01;410.50;2355.20
55329;DHT22;41205;44.264;19.884;2022-11-12T08:54:27;435.30;2355.20
55329;DHT22;41205;44.264;19.884;2022-11-12T08:56:54;435.80;2355.20
55329;DHT22;41205;44.264;19.884;2022-11-12T08:59:20;461.00;2380.80
55329;DHT22;41205;44.264;19.884;2022-11-12T09:01:46;461.00;2380.80
55329;DHT22;41205;44.264;19.884;2022-11-12T09:04:11;461.30;2355.20
55329;DHT22;41205;44.264;19.884;2022-11-12T09:06:37;461.70;2304.00
55329;DHT22;41205;44.264;19.884;2022-11-12T09:09:03;487.00;2201.60
55329;DHT22;41205;44.264;19.884;2022-11-12T09:11:28;512.10;2124.80
55329;DHT22;41205;44.264;19.884;2022-11-12T09:13:54;537.90;2073.60
55329;DHT22;41205;44.264;19.884;2022-11-12T09:16:20;537.80;2022.40
55329;DHT22;41205;44.264;19.884;2022-11-12T09:18:46;537.90;2022.40
55329;DHT22;41205;44.264;19.884;2022-11-12T09:21:13;537.60;2022.40
55329;DHT22;41205;44.264;19.884;2022-11-12T09:23:39;537.60;2022.40
55329;DHT22;41205;44.264;19.884;2022-11-12T09:26:05;537.80;1996.80
55329;DHT22;41205;44.264;19.884;2022-11-12T09:28:31;538.30;1945.60
55329;DHT22;41205;44.264;19.884;2022-11-12T09:30:57;512.40;1996.80
55329;DHT22;41205;44.264;19.884;2022-11-12T09:33:25;487.10;2048.00
55329;DHT22;41205;44.264;19.884;2022-11-12T09:35:52;486.40;2150.40
55329;DHT22;41205;44.264;19.884;2022-11-12T09:38:18;487.20;2073.60
55329;DHT22;41205;44.264;19.884;2022-11-12T09:40:56;486.70;2124.80
55329;DHT22;41205;44.264;19.884;2022-11-12T09:43:31;486.70;2150.40
55329;DHT22;41205;44.264;19.884;2022-11-12T09:46:05;486.70;2124.80
55329;DHT22;41205;44.264;19.884;2022-11-12T09:48:39;512.40;2048.00
55329;DHT22;41205;44.264;19.884;2022-11-12T09:51:18;487.10;2073.60
55329;DHT22;41205;44.264;19.884;2022-11-12T09:53:56;512.70;2022.40
55329;DHT22;41205;44.264;19.884;2022-11-12T09:56:23;512.80;2022.40
55329;DHT22;41205;44.264;19.884;2022-11-12T09:58:49;512.40;2022.40
55329;DHT22;41205;44.264;19.884;2022-11-12T10:07:18;435.20;2355.20
55329;DHT22;41205;44.264;19.884;2022-11-12T10:09:58;435.60;2329.60
55329;DHT22;41205;44.264;19.884;2022-11-12T10:12:39;435.60;2355.20
55329;DHT22;41205;44.264;19.884;2022-11-12T10:18:05;435.50;2355.20
55329;DHT22;41205;44.264;19.884;2022-11-12T10:20:54;410.00;2355.20
55329;DHT22;41205;44.264;19.884;2022-11-12T10:23:45;435.20;2355.20
55329;DHT22;41205;44.264;19.884;2022-11-12T10:26:14;435.40;2355.20
55329;DHT22;41205;44.264;19.884;2022-11-12T10:28:49;410.30;2355.20
55329;DHT22;41205;44.264;19.884;2022-11-12T10:31:19;409.80;2355.20
55329;DHT22;41205;44.264;19.884;2022-11-12T10:33:45;409.80;2355.20
55329;DHT22;41205;44.264;19.884;2022-11-12T10:38:53;410.50;2355.20
55329;DHT22;41205;44.264;19.884;2022-11-12T10:41:26;410.30;2355.20
55329;DHT22;41205;44.264;19.884;2022-11-12T10:44:01;410.20;2355.20
55329;DHT22;41205;44.264;19.884;2022-11-12T10:46:28;409.90;2355.20
55329;DHT22;41205;44.264;19.884;2022-11-12T10:48:57;410.40;2355.20
55329;DHT22;41205;44.264;19.884;2022-11-12T10:51:27;435.30;2355.20
55329;DHT22;41205;44.264;19.884;2022-11-12T10:53:53;435.30;2355.20
55329;DHT22;41205;44.264;19.884;2022-11-12T10:56:30;435.50;2355.20
55329;DHT22;41205;44.264;19.884;2022-11-12T10:59:20;435.60;2355.20
55329;DHT22;41205;44.264;19.884;2022-11-12T11:01:57;435.80;2355.20
55329;DHT22;41205;44.264;19.884;2022-11-12T11:04:36;435.50;2355.20
55329;DHT22;41205;44.264;19.884;2022-11-12T11:07:19;435.20;2355.20
55329;DHT22;41205;44.264;19.884;2022-11-12T11:09:56;410.30;2355.20
55329;DHT22;41205;44.264;19.884;2022-11-12T11:12:30;410.20;2355.20
55329;DHT22;41205;44.264;19.884;2022-11-12T11:15:07;410.30;2355.20
55329;DHT22;41205;44.264;19.884;2022-11-12T11:17:33;384.90;2329.60
55329;DHT22;41205;44.264;19.884;2022-11-12T11:19:59;384.90;2329.60
55329;DHT22;41205;44.264;19.884;2022-11-12T11:22:40;409.60;2355.20
55329;DHT22;41205;44.264;19.884;2022-11-12T11:25:14;384.70;2329.60
55329;DHT22;41205;44.264;19.884;2022-11-12T11:30:20;384.90;2329.60
55329;DHT22;41205;44.264;19.884;2022-11-12T11:36:01;410.20;2355.20
55329;DHT22;41205;44.264;19.884;2022-11-12T11:57:54;409.90;2355.20
55329;DHT22;41205;44.264;19.884;2022-11-12T12:00:21;409.80;2355.20
55329;DHT22;41205;44.264;19.884;2022-11-12T12:13:08;384.90;2329.60
55329;DHT22;41205;44.264;19.884;2022-11-12T12:15:51;410.00;2355.20
55329;DHT22;41205;44.264;19.884;2022-11-12T12:23:40;410.50;2355.20
55329;DHT22;41205;44.264;19.884;2022-11-12T12:26:17;435.30;2355.20
55329;DHT22;41205;44.264;19.884;2022-11-12T12:28:57;435.20;2355.20
55329;DHT22;41205;44.264;19.884;2022-11-12T12:31:31;410.50;2355.20
55329;DHT22;41205;44.264;19.884;2022-11-12T12:34:02;410.30;2355.20
55329;DHT22;41205;44.264;19.884;2022-11-12T12:36:40;410.10;2355.20
55329;DHT22;41205;44.264;19.884;2022-11-12T12:39:21;410.30;2355.20
55329;DHT22;41205;44.264;19.884;2022-11-12T12:44:20;410.00;2355.20
55329;DHT22;41205;44.264;19.884;2022-11-12T12:46:55;410.30;2355.20
55329;DHT22;41205;44.264;19.884;2022-11-12T12:49:29;409.90;2355.20
55329;DHT22;41205;44.264;19.884;2022-11-12T12:51:55;410.20;2355.20
55329;DHT22;41205;44.264;19.884;2022-11-12T12:57:02;410.10;2355.20
55329;DHT22;41205;44.264;19.884;2022-11-12T12:59:28;409.80;2355.20
55329;DHT22;41205;44.264;19.884;2022-11-12T13:01:59;409.60;2355.20
55329;DHT22;41205;44.264;19.884;2022-11-12T13:04:56;409.70;2355.20
55329;DHT22;41205;44.264;19.884;2022-11-12T13:07:40;384.90;2329.60
55329;DHT22;41205;44.264;19.884;2022-11-12T13:13:04;409.60;2355.20
55329;DHT22;41205;44.264;19.884;2022-11-12T13:15:49;384.80;2329.60
55329;DHT22;41205;44.264;19.884;2022-11-12T13:21:18;384.90;2329.60
55329;DHT22;41205;44.264;19.884;2022-11-12T13:23:58;384.70;2329.60
55329;DHT22;41205;44.264;19.884;2022-11-12T13:26:42;384.90;2329.60
55329;DHT22;41205;44.264;19.884;2022-11-12T13:29:24;384.70;2329.60
55329;DHT22;41205;44.264;19.884;2022-11-12T13:32:29;384.70;2329.60
55329;DHT22;41205;44.264;19.884;2022-11-12T13:43:05;409.60;2355.20
55329;DHT22;41205;44.264;19.884;2022-11-12T13:45:33;384.90;2329.60
55329;DHT22;41205;44.264;19.884;2022-11-12T13:48:08;384.60;2329.60
55329;DHT22;41205;44.264;19.884;2022-11-12T13:50:36;384.30;2329.60
55329;DHT22;41205;44.264;19.884;2022-11-12T13:53:07;384.30;2329.60
55329;DHT22;41205;44.264;19.884;2022-11-12T13:55:33;384.40;2329.60
55329;DHT22;41205;44.264;19.884;2022-11-12T13:57:58;384.30;2329.60
55329;DHT22;41205;44.264;19.884;2022-11-12T14:00:26;384.40;2329.60
55329;DHT22;41205;44.264;19.884;2022-11-12T14:03:01;384.30;2329.60
55329;DHT22;41205;44.264;19.884;2022-11-12T14:05:29;384.40;2329.60
55329;DHT22;41205;44.264;19.884;2022-11-12T14:08:29;384.50;2329.60
55329;DHT22;41205;44.264;19.884;2022-11-12T14:17:01;384.00;2329.60
55329;DHT22;41205;44.264;19.884;2022-11-12T14:22:24;384.10;2329.60
55329;DHT22;41205;44.264;19.884;2022-11-12T14:24:59;384.10;2329.60
55329;DHT22;41205;44.264;19.884;2022-11-12T14:30:13;384.10;2329.60
55329;DHT22;41205;44.264;19.884;2022-11-12T14:32:41;359.30;2329.60
55329;DHT22;41205;44.264;19.884;2022-11-12T14:37:59;384.10;2329.60
55329;DHT22;41205;44.264;19.884;2022-11-12T14:40:30;384.00;2329.60
55329;DHT22;41205;44.264;19.884;2022-11-12T14:42:57;384.00;2329.60
55329;DHT22;41205;44.264;19.884;2022-11-12T14:45:23;359.10;2329.60
55329;DHT22;41205;44.264;19.884;2022-11-12T14:47:51;358.90;2329.60
55329;DHT22;41205;44.264;19.884;2022-11-12T14:50:25;358.90;2329.60
55329;DHT22;41205;44.264;19.884;2022-11-12T14:52:58;358.90;2329.60
55329;DHT22;41205;44.264;19.884;2022-11-12T14:55:31;358.80;2329.60
55329;DHT22;41205;44.264;19.884;2022-11-12T14:57:58;358.80;2329.60
55329;DHT22;41205;44.264;19.884;2022-11-12T15:00:37;358.70;2329.60
55329;DHT22;41205;44.264;19.884;2022-11-12T15:03:04;358.70;2329.60
55329;DHT22;41205;44.264;19.884;2022-11-12T15:05:30;358.60;2329.60
55329;DHT22;41205;44.264;19.884;2022-11-12T15:08:03;358.50;2329.60
55329;DHT22;41205;44.264;19.884;2022-11-12T15:10:37;358.60;2329.60
55329;DHT22;41205;44.264;19.884;2022-11-12T15:15:48;358.60;2329.60
55329;DHT22;41205;44.264;19.884;2022-11-12T15:18:26;358.60;2329.60
55329;DHT22;41205;44.264;19.884;2022-11-12T15:21:11;358.60;2329.60
55329;DHT22;41205;44.264;19.884;2022-11-12T15:23:50;358.60;2329.60
55329;DHT22;41205;44.264;19.884;2022-11-12T15:26:35;358.50;2329.60
55329;DHT22;41205;44.264;19.884;2022-11-12T15:29:12;358.50;2329.60
55329;DHT22;41205;44.264;19.884;2022-11-12T15:37:01;333.70;2329.60
55329;DHT22;41205;44.264;19.884;2022-11-12T15:39:28;333.60;2329.60
55329;DHT22;41205;44.264;19.884;2022-11-12T15:42:02;333.50;2329.60
55329;DHT22;41205;44.264;19.884;2022-11-12T15:44:33;333.50;2329.60
55329;DHT22;41205;44.264;19.884;2022-11-12T15:47:02;333.40;2329.60
55329;DHT22;41205;44.264;19.884;2022-11-12T15:49:28;333.40;2329.60
55329;DHT22;41205;44.264;19.884;2022-11-12T15:51:54;333.30;2329.60
55329;DHT22;41205;44.264;19.884;2022-11-12T15:54:20;333.20;2329.60
55329;DHT22;41205;44.264;19.884;2022-11-12T15:56:46;333.20;2329.60
55329;DHT22;41205;44.264;19.884;2022-11-12T15:59:14;333.20;2329.60
55329;DHT22;41205;44.264;19.884;2022-11-12T16:01:41;333.00;2329.60
55329;DHT22;41205;44.264;19.884;2022-11-12T16:04:09;333.00;2329.60
55329;DHT22;41205;44.264;19.884;2022-11-12T16:06:35;333.00;2329.60
55329;DHT22;41205;44.264;19.884;2022-11-12T16:09:01;333.10;2329.60
55329;DHT22;41205;44.264;19.884;2022-11-12T16:11:26;333.00;2329.60
55329;DHT22;41205;44.264;19.884;2022-11-12T16:14:09;333.00;2329.60
55329;DHT22;41205;44.264;19.884;2022-11-12T16:16:37;332.80;2329.60
55329;DHT22;41205;44.264;19.884;2022-11-12T16:19:13;332.80;2329.60
55329;DHT22;41205;44.264;19.884;2022-11-12T16:21:39;308.10;2304.00
55329;DHT22;41205;44.264;19.884;2022-11-12T16:24:06;308.10;2304.00
55329;DHT22;41205;44.264;19.884;2022-11-12T16:26:32;308.00;2304.00
55329;DHT22;41205;44.264;19.884;2022-11-12T16:28:58;308.00;2304.00
55329;DHT22;41205;44.264;19.884;2022-11-12T16:31:25;307.90;2304.00
55329;DHT22;41205;44.264;19.884;2022-11-12T16:33:51;307.80;2304.00
55329;DHT22;41205;44.264;19.884;2022-11-12T16:36:17;307.80;2304.00